Time,TemperatureF,DewpointF,PressureIn,WindDirection,WindDirectionDegrees,WindSpeedMPH,WindSpeedGustMPH,Humidity,HourlyPrecipIn,Conditions,Clouds,dailyrainin,SoftwareType,DateUTC
2013-10-11 00:01:00,46.0,43.5,30.01,SE,124,0.0,0.0,91,0.00,CLR,,0.00,WeatherDisplay:10.37,2013-10-11 07:01:00,
2013-10-11 00:06:00,45.9,43.4,30.01,SE,124,0.0,0.0,91,0.00,CLR,,0.00,WeatherDisplay:10.37,2013-10-11 07:06:00,
2013-10-11 00:11:00,45.5,43.0,30.01,SE,124,0.0,0.0,91,0.00,CLR,,0.00,WeatherDisplay:10.37,2013-10-11 07:11:00,
2013-10-11 00:16:00,45.3,42.8,30.01,SE,124,0.0,0.0,91,0.00,CLR,,0.00,WeatherDisplay:10.37,2013-10-11 07:16:00,
2013-10-11 00:21:00,45.4,43.2,30.01,SE,124,0.0,0.0,92,0.00,CLR,,0.00,WeatherDisplay:10.37,2013-10-11 07:21:00,
2013-10-11 00:26:00,45.3,43.1,30.01,SE,124,0.0,0.0,92,0.00,CLR,,0.00,WeatherDisplay:10.37,2013-10-11 07:26:00,
2013-10-11 00:31:00,45.5,43.3,30.01,SE,124,0.0,0.0,92,0.00,CLR,,0.00,WeatherDisplay:10.37,2013-10-11 07:31:00,
2013-10-11 00:36:00,45.8,43.9,30.01,SE,124,0.0,0.0,93,0.00,CLR,,0.00,WeatherDisplay:10.37,2013-10-11 07:36:00,
2013-10-11 00:41:00,45.7,43.5,30.02,SE,124,0.0,0.0,92,0.00,CLR,,0.00,WeatherDisplay:10.37,2013-10-11 07:41:00,
2013-10-11 00:46:00,45.2,43.0,30.01,SE,124,0.0,0.0,92,0.00,CLR,,0.00,WeatherDisplay:10.37,2013-10-11 07:46:00,
2013-10-11 00:51:00,44.3,41.8,30.01,SE,124,0.0,0.0,91,0.00,CLR,,0.00,WeatherDisplay:10.37,2013-10-11 07:51:00,
2013-10-11 00:56:00,44.1,41.9,30.01,SE,124,0.0,0.0,92,0.00,CLR,,0.00,WeatherDisplay:10.37,2013-10-11 07:56:00,
2013-10-11 01:01:00,44.1,41.9,30.02,SE,124,0.0,0.0,92,0.00,CLR,,0.00,WeatherDisplay:10.37,2013-10-11 08:01:00,
2013-10-11 01:06:00,43.9,41.7,30.01,SE,124,0.0,0.0,92,0.00,CLR,,0.00,WeatherDisplay:10.37,2013-10-11 08:06:00,
2013-10-11 01:11:00,43.9,41.7,30.02,SE,124,0.0,0.0,92,0.00,CLR,,0.00,WeatherDisplay:10.37,2013-10-11 08:11:00,
2013-10-11 01:16:00,43.9,41.7,30.02,SE,124,0.0,0.0,92,0.00,CLR,,0.00,WeatherDisplay:10.37,2013-10-11 08:16:00,
2013-10-11 01:21:00,43.8,41.6,30.02,SE,124,0.0,0.0,92,0.00,CLR,,0.00,WeatherDisplay:10.37,2013-10-11 08:21:00,
2013-10-11 01:26:00,43.6,41.4,30.02,SE,124,0.0,0.0,92,0.00,CLR,,0.00,WeatherDisplay:10.37,2013-10-11 08:26:00,
2013-10-11 01:31:00,43.4,41.2,30.02,SE,124,0.0,0.0,92,0.00,CLR,,0.00,WeatherDisplay:10.37,2013-10-11 08:31:00,
2013-10-11 01:36:00,43.3,41.4,30.02,SE,124,0.0,0.0,93,0.00,CLR,,0.00,WeatherDisplay:10.37,2013-10-11 08:36:00,
2013-10-11 01:41:00,42.8,40.6,30.02,SE,124,1.2,1.2,92,0.00,CLR,,0.00,WeatherDisplay:10.37,2013-10-11 08:41:00,
2013-10-11 01:46:00,42.6,40.4,30.02,North,359,2.3,2.3,92,0.00,CLR,,0.00,WeatherDisplay:10.37,2013-10-11 08:46:00,
2013-10-11 01:51:00,42.2,40.0,30.02,North,360,2.0,2.0,92,0.00,CLR,,0.00,WeatherDisplay:10.37,2013-10-11 08:51:00,
2013-10-11 01:56:00,42.3,40.1,30.02,North,360,1.2,1.2,92,0.00,CLR,,0.00,WeatherDisplay:10.37,2013-10-11 08:56:00,
2013-10-11 02:01:00,42.8,40.9,30.02,North,360,0.0,0.0,93,0.00,CLR,,0.00,WeatherDisplay:10.37,2013-10-11 09:01:00,
2013-10-11 02:06:00,43.4,41.5,30.03,North,360,0.0,0.0,93,0.00,CLR,,0.00,WeatherDisplay:10.37,2013-10-11 09:06:00,
2013-10-11 02:11:00,43.6,41.7,30.03,North,359,0.0,0.0,93,0.00,CLR,,0.00,WeatherDisplay:10.37,2013-10-11 09:11:00,
2013-10-11 02:16:00,43.7,41.8,30.03,North,360,2.3,2.3,93,0.00,CLR,,0.00,WeatherDisplay:10.37,2013-10-11 09:16:00,
2013-10-11 02:21:00,43.3,41.1,30.03,North,360,1.2,1.2,92,0.00,CLR,,0.00,WeatherDisplay:10.37,2013-10-11 09:21:00,
2013-10-11 02:26:00,43.1,40.9,30.03,North,359,1.2,1.2,92,0.00,CLR,,0.00,WeatherDisplay:10.37,2013-10-11 09:26:00,
2013-10-11 02:31:00,42.8,40.6,30.03,North,360,1.2,1.2,92,0.00,CLR,,0.00,WeatherDisplay:10.37,2013-10-11 09:31:00,
2013-10-11 02:36:00,42.7,40.5,30.03,North,360,1.2,1.2,92,0.00,CLR,,0.00,WeatherDisplay:10.37,2013-10-11 09:36:00,
2013-10-11 02:41:00,42.7,40.8,30.03,North,360,1.2,0.0,93,0.00,CLR,,0.00,WeatherDisplay:10.37,2013-10-11 09:41:00,
2013-10-11 02:46:00,43.0,41.1,30.03,North,359,0.0,0.0,93,0.00,CLR,,0.00,WeatherDisplay:10.37,2013-10-11 09:46:00,
2013-10-11 02:51:00,43.5,41.6,30.03,North,360,0.0,0.0,93,0.00,CLR,,0.00,WeatherDisplay:10.37,2013-10-11 09:51:00,
2013-10-11 02:56:00,43.3,41.4,30.03,North,359,1.2,1.2,93,0.00,CLR,,0.00,WeatherDisplay:10.37,2013-10-11 09:56:00,
2013-10-11 03:01:00,42.9,40.7,30.03,North,359,0.0,0.0,92,0.00,CLR,,0.00,WeatherDisplay:10.37,2013-10-11 10:01:00,
2013-10-11 03:06:00,42.7,40.5,30.03,North,359,1.2,1.2,92,0.00,CLR,,0.00,WeatherDisplay:10.37,2013-10-11 10:06:00,
2013-10-11 03:11:00,42.2,40.0,30.03,North,360,2.0,2.0,92,0.00,CLR,,0.00,WeatherDisplay:10.37,2013-10-11 10:11:00,
2013-10-11 03:16:00,42.0,39.8,30.03,NNW,333,2.3,2.3,92,0.00,CLR,,0.00,WeatherDisplay:10.37,2013-10-11 10:16:00,
2013-10-11 03:21:00,42.3,40.4,30.03,NNW,333,0.0,0.0,93,0.00,CLR,,0.00,WeatherDisplay:10.37,2013-10-11 10:21:00,
2013-10-11 03:26:00,42.2,40.3,30.03,NNW,333,0.0,0.0,93,0.00,CLR,,0.00,WeatherDisplay:10.37,2013-10-11 10:26:00,
2013-10-11 03:31:00,42.6,40.7,30.03,NNW,333,0.0,0.0,93,0.00,CLR,,0.00,WeatherDisplay:10.37,2013-10-11 10:31:00,
2013-10-11 03:36:00,42.7,40.8,30.03,NNW,333,0.0,0.0,93,0.00,CLR,,0.00,WeatherDisplay:10.37,2013-10-11 10:36:00,
2013-10-11 03:41:00,41.7,39.5,30.03,NNW,333,0.0,0.0,92,0.00,CLR,,0.00,WeatherDisplay:10.37,2013-10-11 10:41:00,
2013-10-11 03:46:00,41.4,39.3,30.03,NNW,333,0.0,0.0,92,0.00,CLR,,0.00,WeatherDisplay:10.37,2013-10-11 10:46:00,
2013-10-11 03:51:00,41.7,39.8,30.03,NNW,333,0.0,0.0,93,0.00,CLR,,0.00,WeatherDisplay:10.37,2013-10-11 10:51:00,
2013-10-11 03:56:00,41.5,39.6,30.03,NNW,333,1.2,1.2,93,0.00,CLR,,0.00,WeatherDisplay:10.37,2013-10-11 10:56:00,
2013-10-11 04:01:00,41.8,39.9,30.03,NNW,333,1.2,1.2,93,0.00,CLR,,0.00,WeatherDisplay:10.37,2013-10-11 11:01:00,
2013-10-11 04:06:00,41.9,40.0,30.03,NNW,333,0.0,0.0,93,0.00,CLR,,0.00,WeatherDisplay:10.37,2013-10-11 11:06:00,
2013-10-11 04:11:00,42.1,40.2,30.04,NNW,333,1.2,0.0,93,0.00,CLR,,0.00,WeatherDisplay:10.37,2013-10-11 11:11:00,
2013-10-11 04:16:00,41.8,39.9,30.04,NNW,333,1.2,1.2,93,0.00,CLR,,0.00,WeatherDisplay:10.37,2013-10-11 11:16:00,
2013-10-11 04:21:00,41.3,39.2,30.04,NNW,333,0.0,0.0,92,0.00,CLR,,0.00,WeatherDisplay:10.37,2013-10-11 11:21:00,
2013-10-11 04:26:00,40.7,38.6,30.04,NNW,333,1.2,1.2,92,0.00,CLR,,0.00,WeatherDisplay:10.37,2013-10-11 11:26:00,
2013-10-11 04:31:00,41.0,39.1,30.04,NNW,333,0.0,0.0,93,0.00,CLR,,0.00,WeatherDisplay:10.37,2013-10-11 11:31:00,
2013-10-11 04:36:00,41.1,39.2,30.04,NNW,333,0.0,0.0,93,0.00,CLR,,0.00,WeatherDisplay:10.37,2013-10-11 11:36:00,
2013-10-11 04:41:00,41.1,39.2,30.05,NNW,333,0.0,0.0,93,0.00,CLR,,0.00,WeatherDisplay:10.37,2013-10-11 11:41:00,
2013-10-11 04:46:00,41.5,39.9,30.05,NNW,333,1.2,0.0,94,0.00,CLR,,0.00,WeatherDisplay:10.37,2013-10-11 11:46:00,
2013-10-11 04:51:00,41.7,40.1,30.05,NNW,333,0.0,0.0,94,0.00,CLR,,0.00,WeatherDisplay:10.37,2013-10-11 11:51:00,
2013-10-11 04:56:00,41.2,39.3,30.05,NNW,333,0.0,0.0,93,0.00,CLR,,0.00,WeatherDisplay:10.37,2013-10-11 11:56:00,
2013-10-11 05:01:00,40.7,38.8,30.05,NNW,333,1.2,1.2,93,0.00,CLR,,0.00,WeatherDisplay:10.37,2013-10-11 12:01:00,
2013-10-11 05:06:00,41.0,39.4,30.05,NNW,333,0.0,0.0,94,0.00,CLR,,0.00,WeatherDisplay:10.37,2013-10-11 12:06:00,
2013-10-11 05:11:00,41.1,39.2,30.05,NNW,333,0.0,0.0,93,0.00,CLR,,0.00,WeatherDisplay:10.37,2013-10-11 12:11:00,
2013-10-11 05:16:00,41.2,39.6,30.06,NNW,333,0.0,0.0,94,0.00,CLR,,0.00,WeatherDisplay:10.37,2013-10-11 12:16:00,
2013-10-11 05:21:00,41.1,39.5,30.06,NNW,333,0.0,0.0,94,0.00,CLR,,0.00,WeatherDisplay:10.37,2013-10-11 12:21:00,
2013-10-11 05:26:00,40.8,38.9,30.06,NNW,334,1.0,0.0,93,0.00,CLR,,0.00,WeatherDisplay:10.37,2013-10-11 12:26:00,
2013-10-11 05:31:00,41.2,39.6,30.06,NNW,334,0.0,0.0,94,0.00,CLR,,0.00,WeatherDisplay:10.37,2013-10-11 12:31:00,
2013-10-11 05:36:00,40.9,39.0,30.06,NNW,334,0.0,0.0,93,0.00,CLR,,0.00,WeatherDisplay:10.37,2013-10-11 12:36:00,
2013-10-11 05:41:00,40.6,38.7,30.06,NNW,335,0.0,0.0,93,0.00,CLR,,0.00,WeatherDisplay:10.37,2013-10-11 12:41:00,
2013-10-11 05:46:00,40.7,38.8,30.06,NNW,334,0.0,0.0,93,0.00,CLR,,0.00,WeatherDisplay:10.37,2013-10-11 12:46:00,
2013-10-11 05:51:00,40.9,39.3,30.06,NNW,334,0.0,0.0,94,0.00,CLR,,0.00,WeatherDisplay:10.37,2013-10-11 12:51:00,
2013-10-11 05:56:00,41.1,39.5,30.06,NNW,335,0.0,0.0,94,0.00,CLR,,0.00,WeatherDisplay:10.37,2013-10-11 12:56:00,
2013-10-11 06:01:00,41.5,39.9,30.06,NNW,335,0.0,0.0,94,0.00,CLR,,0.00,WeatherDisplay:10.37,2013-10-11 13:01:00,
2013-10-11 06:06:00,41.6,40.0,30.06,NNW,334,0.0,0.0,94,0.00,CLR,,0.00,WeatherDisplay:10.37,2013-10-11 13:06:00,
2013-10-11 06:11:00,42.1,40.5,30.06,West,266,0.0,0.0,94,0.00,CLR,,0.00,WeatherDisplay:10.37,2013-10-11 13:11:00,
2013-10-11 06:16:00,42.4,40.8,30.06,West,265,0.0,0.0,94,0.00,CLR,,0.00,WeatherDisplay:10.37,2013-10-11 13:16:00,
2013-10-11 06:21:00,42.4,40.8,30.06,West,266,1.2,1.2,94,0.00,CLR,,0.00,WeatherDisplay:10.37,2013-10-11 13:21:00,
2013-10-11 06:26:00,42.5,40.9,30.06,West,267,0.0,0.0,94,0.00,CLR,,0.00,WeatherDisplay:10.37,2013-10-11 13:26:00,
2013-10-11 06:31:00,41.9,40.0,30.06,West,267,0.0,0.0,93,0.00,CLR,,0.00,WeatherDisplay:10.37,2013-10-11 13:31:00,
2013-10-11 06:36:00,41.7,39.8,30.07,West,267,0.0,0.0,93,0.00,CLR,,0.00,WeatherDisplay:10.37,2013-10-11 13:36:00,
2013-10-11 06:41:00,41.8,39.9,30.07,West,267,0.0,0.1,93,0.00,CLR,,0.00,WeatherDisplay:10.37,2013-10-11 13:41:00,
2013-10-11 06:46:00,42.0,40.4,30.07,West,267,0.0,0.0,94,0.00,CLR,,0.00,WeatherDisplay:10.37,2013-10-11 13:46:00,
2013-10-11 06:51:00,42.1,40.2,30.07,West,267,0.0,0.0,93,0.00,CLR,,0.00,WeatherDisplay:10.37,2013-10-11 13:51:00,
2013-10-11 06:56:00,41.9,40.0,30.07,West,267,0.0,0.0,93,0.00,CLR,,0.00,WeatherDisplay:10.37,2013-10-11 13:56:00,
2013-10-11 07:01:00,41.6,39.7,30.07,NNE,25,0.0,0.0,93,0.00,CLR,,0.00,WeatherDisplay:10.37,2013-10-11 14:01:00,
2013-10-11 07:06:00,41.4,39.5,30.07,NNE,25,0.0,0.0,93,0.00,CLR,,0.00,WeatherDisplay:10.37,2013-10-11 14:06:00,
2013-10-11 07:11:00,41.4,39.5,30.07,NNE,25,1.2,1.2,93,0.00,CLR,,0.00,WeatherDisplay:10.37,2013-10-11 14:11:00,
2013-10-11 07:16:00,41.6,39.7,30.07,NNE,25,0.0,0.0,93,0.00,CLR,,0.00,WeatherDisplay:10.37,2013-10-11 14:16:00,
2013-10-11 07:21:00,41.6,39.7,30.08,NNE,25,0.0,0.0,93,0.00,CLR,,0.00,WeatherDisplay:10.37,2013-10-11 14:21:00,
2013-10-11 07:26:00,41.5,39.6,30.08,NNE,25,1.2,1.2,93,0.00,CLR,,0.00,WeatherDisplay:10.37,2013-10-11 14:26:00,
2013-10-11 07:31:00,40.9,38.8,30.08,NNE,25,0.0,0.0,92,0.00,CLR,,0.00,WeatherDisplay:10.37,2013-10-11 14:31:00,
2013-10-11 07:36:00,40.7,38.6,30.08,NNE,25,0.0,0.0,92,0.00,CLR,,0.00,WeatherDisplay:10.37,2013-10-11 14:36:00,
2013-10-11 07:41:00,40.6,38.7,30.08,NNE,25,0.0,0.0,93,0.00,CLR,,0.00,WeatherDisplay:10.37,2013-10-11 14:41:00,
2013-10-11 07:46:00,40.4,38.5,30.08,NNE,25,0.0,0.0,93,0.00,CLR,,0.00,WeatherDisplay:10.37,2013-10-11 14:46:00,
2013-10-11 07:51:00,40.5,38.6,30.08,NNE,25,0.0,0.0,93,0.00,CLR,,0.00,WeatherDisplay:10.37,2013-10-11 14:51:00,
2013-10-11 07:56:00,40.7,38.8,30.08,NNE,25,0.0,0.0,93,0.00,CLR,,0.00,WeatherDisplay:10.37,2013-10-11 14:56:00,
2013-10-11 08:01:00,41.1,39.5,30.08,NNE,25,0.0,0.0,94,0.00,CLR,,0.00,WeatherDisplay:10.37,2013-10-11 15:01:00,
2013-10-11 08:06:00,41.7,40.1,30.08,NNE,25,0.0,0.0,94,0.00,CLR,,0.00,WeatherDisplay:10.37,2013-10-11 15:06:00,
2013-10-11 08:11:00,42.3,40.7,30.08,NNE,25,0.0,0.0,94,0.00,CLR,,0.00,WeatherDisplay:10.37,2013-10-11 15:11:00,
2013-10-11 08:16:00,42.8,41.2,30.08,NNE,24,0.0,0.0,94,0.00,CLR,,0.00,WeatherDisplay:10.37,2013-10-11 15:16:00,
2013-10-11 08:21:00,43.3,41.7,30.09,NNE,25,0.0,0.0,94,0.00,CLR,,0.00,WeatherDisplay:10.37,2013-10-11 15:21:00,
2013-10-11 08:26:00,43.9,42.3,30.09,NNE,25,0.0,0.0,94,0.00,CLR,,0.00,WeatherDisplay:10.37,2013-10-11 15:26:00,
2013-10-11 08:31:00,44.3,42.7,30.09,NNE,25,1.2,0.0,94,0.00,CLR,,0.00,WeatherDisplay:10.37,2013-10-11 15:31:00,
2013-10-11 08:37:00,44.9,43.0,30.09,NNE,25,0.0,0.0,93,0.00,CLR,,0.00,WeatherDisplay:10.37,2013-10-11 15:37:00,
2013-10-11 08:42:00,45.3,43.4,30.09,NNE,25,0.0,0.0,93,0.00,CLR,,0.00,WeatherDisplay:10.37,2013-10-11 15:42:00,
2013-10-11 08:47:00,45.7,43.5,30.09,NNE,25,0.0,0.0,92,0.00,CLR,,0.00,WeatherDisplay:10.37,2013-10-11 15:47:00,
2013-10-11 08:52:00,46.1,43.9,30.09,NNE,25,0.0,0.0,92,0.00,CLR,,0.00,WeatherDisplay:10.37,2013-10-11 15:52:00,
2013-10-11 08:57:00,46.5,44.0,30.09,ENE,77,1.2,1.2,91,0.00,CLR,,0.00,WeatherDisplay:10.37,2013-10-11 15:57:00,
2013-10-11 09:02:00,46.8,44.3,30.09,ENE,77,0.0,0.0,91,0.00,CLR,,0.00,WeatherDisplay:10.37,2013-10-11 16:02:00,
2013-10-11 09:07:00,47.3,44.8,30.09,ESE,114,0.0,0.0,91,0.00,CLR,,0.00,WeatherDisplay:10.37,2013-10-11 16:07:00,
2013-10-11 09:12:00,48.0,45.5,30.09,SSW,211,0.0,0.0,91,0.00,CLR,,0.00,WeatherDisplay:10.37,2013-10-11 16:12:00,
2013-10-11 09:17:00,48.7,46.2,30.09,SSW,193,1.2,1.2,91,0.00,CLR,,0.00,WeatherDisplay:10.37,2013-10-11 16:17:00,
2013-10-11 09:22:00,49.1,46.6,30.10,SSW,204,0.0,0.0,91,0.00,CLR,,0.00,WeatherDisplay:10.37,2013-10-11 16:22:00,
2013-10-11 09:27:00,49.6,47.1,30.10,SSW,204,0.0,0.0,91,0.00,CLR,,0.00,WeatherDisplay:10.37,2013-10-11 16:27:00,
2013-10-11 09:32:00,49.9,47.4,30.10,SSW,204,0.0,0.0,91,0.00,CLR,,0.00,WeatherDisplay:10.37,2013-10-11 16:32:00,
2013-10-11 09:37:00,49.9,47.1,30.10,East,91,1.2,1.2,90,0.00,CLR,,0.00,WeatherDisplay:10.37,2013-10-11 16:37:00,
2013-10-11 09:42:00,50.0,47.5,30.10,SSE,150,0.0,0.0,91,0.00,CLR,,0.00,WeatherDisplay:10.37,2013-10-11 16:42:00,
2013-10-11 09:47:00,50.1,47.3,30.10,South,169,2.3,2.3,90,0.00,CLR,,0.00,WeatherDisplay:10.37,2013-10-11 16:47:00,
2013-10-11 09:52:00,50.4,47.9,30.10,SSE,167,2.0,2.0,91,0.00,CLR,,0.00,WeatherDisplay:10.37,2013-10-11 16:52:00,
2013-10-11 09:57:00,50.5,47.7,30.10,SSE,162,3.5,3.5,90,0.00,CLR,,0.00,WeatherDisplay:10.37,2013-10-11 16:57:00,
2013-10-11 10:02:00,50.6,47.8,30.10,SSW,205,1.2,1.2,90,0.00,CLR,,0.00,WeatherDisplay:10.37,2013-10-11 17:02:00,
2013-10-11 10:07:00,51.1,48.3,30.10,SSW,205,0.0,0.0,90,0.00,CLR,,0.00,WeatherDisplay:10.37,2013-10-11 17:07:00,
2013-10-11 10:12:00,51.7,48.6,30.10,NW,311,0.0,0.0,89,0.00,CLR,,0.00,WeatherDisplay:10.37,2013-10-11 17:12:00,
2013-10-11 10:17:00,52.0,48.6,30.10,SSW,203,2.3,2.3,88,0.00,CLR,,0.00,WeatherDisplay:10.37,2013-10-11 17:17:00,
2013-10-11 10:22:00,52.5,49.0,30.10,SSE,154,2.0,2.0,88,0.00,CLR,,0.00,WeatherDisplay:10.37,2013-10-11 17:22:00,
2013-10-11 10:27:00,52.7,48.9,30.10,ESE,113,1.2,1.2,87,0.00,CLR,,0.00,WeatherDisplay:10.37,2013-10-11 17:27:00,
2013-10-11 10:32:00,52.7,48.9,30.10,WSW,239,1.2,1.2,87,0.00,CLR,,0.00,WeatherDisplay:10.37,2013-10-11 17:32:00,
2013-10-11 10:37:00,53.3,49.2,30.09,SSE,163,2.3,2.3,86,0.00,CLR,,0.00,WeatherDisplay:10.37,2013-10-11 17:37:00,
2013-10-11 10:42:00,53.7,49.3,30.09,South,184,1.2,0.0,85,0.00,CLR,,0.00,WeatherDisplay:10.37,2013-10-11 17:42:00,
2013-10-11 10:47:00,54.0,49.3,30.09,SSE,152,3.5,3.5,84,0.00,CLR,,0.00,WeatherDisplay:10.37,2013-10-11 17:47:00,
2013-10-11 10:52:00,54.2,49.5,30.09,SSW,198,3.5,3.5,84,0.00,CLR,,0.00,WeatherDisplay:10.37,2013-10-11 17:52:00,
2013-10-11 10:57:00,54.6,49.5,30.09,SSE,160,3.0,3.0,83,0.00,CLR,,0.00,WeatherDisplay:10.37,2013-10-11 17:57:00,
2013-10-11 11:02:00,55.0,49.6,30.09,NNW,330,3.0,3.0,82,0.00,CLR,,0.00,WeatherDisplay:10.37,2013-10-11 18:02:00,
2013-10-11 11:07:00,55.1,49.7,30.09,ENE,73,1.2,1.2,82,0.00,CLR,,0.00,WeatherDisplay:10.37,2013-10-11 18:07:00,
2013-10-11 11:12:00,55.8,50.1,30.08,SSW,193,3.5,3.5,81,0.00,CLR,,0.00,WeatherDisplay:10.37,2013-10-11 18:12:00,
2013-10-11 11:17:00,56.7,50.3,30.08,SSE,163,3.5,3.5,79,0.00,CLR,,0.00,WeatherDisplay:10.37,2013-10-11 18:17:00,
2013-10-11 11:22:00,57.8,50.6,30.08,WSW,245,2.3,2.3,77,0.00,CLR,,0.00,WeatherDisplay:10.37,2013-10-11 18:22:00,
2013-10-11 11:27:00,58.4,50.5,30.08,SW,236,1.2,1.2,75,0.00,CLR,,0.00,WeatherDisplay:10.37,2013-10-11 18:27:00,
2013-10-11 11:32:00,59.3,50.6,30.08,South,172,3.0,3.0,73,0.00,CLR,,0.00,WeatherDisplay:10.37,2013-10-11 18:32:00,
2013-10-11 11:37:00,59.7,50.7,30.08,ENE,78,3.5,3.5,72,0.00,CLR,,0.00,WeatherDisplay:10.37,2013-10-11 18:37:00,
2013-10-11 11:42:00,60.1,51.0,30.08,SW,214,3.5,3.5,72,0.00,CLR,,0.00,WeatherDisplay:10.37,2013-10-11 18:42:00,
2013-10-11 11:47:00,61.3,51.0,30.08,South,173,5.0,5.0,69,0.00,CLR,,0.00,WeatherDisplay:10.37,2013-10-11 18:47:00,
2013-10-11 11:52:00,62.0,50.5,30.07,ENE,68,3.5,3.5,66,0.00,CLR,,0.00,WeatherDisplay:10.37,2013-10-11 18:52:00,
2013-10-11 11:57:00,62.4,50.9,30.08,SE,134,1.2,1.2,66,0.00,CLR,,0.00,WeatherDisplay:10.37,2013-10-11 18:57:00,
2013-10-11 12:02:00,63.3,50.9,30.07,WSW,242,3.5,3.5,64,0.00,CLR,,0.00,WeatherDisplay:10.37,2013-10-11 19:02:00,
2013-10-11 12:07:00,64.1,51.2,30.07,SSE,155,1.2,0.0,63,0.00,CLR,,0.00,WeatherDisplay:10.37,2013-10-11 19:07:00,
2013-10-11 12:12:00,64.7,51.4,30.07,South,173,2.3,2.3,62,0.00,CLR,,0.00,WeatherDisplay:10.37,2013-10-11 19:12:00,
2013-10-11 12:17:00,65.0,50.8,30.07,SSW,203,3.5,3.5,60,0.00,CLR,,0.00,WeatherDisplay:10.37,2013-10-11 19:17:00,
2013-10-11 12:22:00,65.8,50.6,30.07,East,84,1.2,1.2,58,0.00,CLR,,0.00,WeatherDisplay:10.37,2013-10-11 19:22:00,
2013-10-11 12:27:00,66.1,50.9,30.07,SE,136,2.0,2.0,58,0.00,CLR,,0.00,WeatherDisplay:10.37,2013-10-11 19:27:00,
2013-10-11 12:32:00,66.1,50.9,30.06,SSE,153,5.8,5.8,58,0.00,CLR,,0.00,WeatherDisplay:10.37,2013-10-11 19:32:00,
2013-10-11 12:37:00,66.3,51.5,30.06,South,185,3.5,3.5,59,0.00,CLR,,0.00,WeatherDisplay:10.37,2013-10-11 19:37:00,
2013-10-11 12:42:00,66.6,50.9,30.05,SW,217,4.6,4.6,57,0.00,CLR,,0.00,WeatherDisplay:10.37,2013-10-11 19:42:00,
2013-10-11 12:47:00,66.9,51.2,30.05,SSE,154,6.9,6.9,57,0.00,CLR,,0.00,WeatherDisplay:10.37,2013-10-11 19:47:00,
2013-10-11 12:52:00,66.7,51.0,30.05,ESE,121,3.5,3.5,57,0.00,CLR,,0.00,WeatherDisplay:10.37,2013-10-11 19:52:00,
2013-10-11 12:57:00,66.7,51.0,30.05,SE,139,3.5,3.5,57,0.00,CLR,,0.00,WeatherDisplay:10.37,2013-10-11 19:57:00,
2013-10-11 13:02:00,66.8,51.1,30.05,SE,140,4.6,4.6,57,0.00,CLR,,0.00,WeatherDisplay:10.37,2013-10-11 20:02:00,
2013-10-11 13:07:00,66.9,51.6,30.05,SSE,150,3.5,3.5,58,0.00,CLR,,0.00,WeatherDisplay:10.37,2013-10-11 20:07:00,
2013-10-11 13:12:00,67.4,51.2,30.04,SSE,150,8.1,8.1,56,0.00,CLR,,0.00,WeatherDisplay:10.37,2013-10-11 20:12:00,
2013-10-11 13:17:00,67.4,51.6,30.04,SE,132,4.6,4.6,57,0.00,CLR,,0.00,WeatherDisplay:10.37,2013-10-11 20:17:00,
2013-10-11 13:22:00,67.9,51.1,30.04,SE,136,4.6,4.6,55,0.00,CLR,,0.00,WeatherDisplay:10.37,2013-10-11 20:22:00,
2013-10-11 13:27:00,68.1,51.8,30.03,South,176,5.8,5.8,56,0.00,CLR,,0.00,WeatherDisplay:10.37,2013-10-11 20:27:00,
2013-10-11 13:32:00,68.2,51.4,30.03,SSE,150,2.3,2.3,55,0.00,CLR,,0.00,WeatherDisplay:10.37,2013-10-11 20:32:00,
2013-10-11 13:37:00,68.3,50.5,30.03,South,172,3.5,3.5,53,0.00,CLR,,0.00,WeatherDisplay:10.37,2013-10-11 20:37:00,
2013-10-11 13:42:00,68.9,51.1,30.03,ESE,121,3.5,3.5,53,0.00,CLR,,0.00,WeatherDisplay:10.37,2013-10-11 20:42:00,
2013-10-11 13:47:00,69.1,50.7,30.02,SE,126,6.9,6.9,52,0.00,CLR,,0.00,WeatherDisplay:10.37,2013-10-11 20:47:00,
2013-10-11 13:52:00,69.2,50.3,30.02,SE,126,4.0,4.0,51,0.00,CLR,,0.00,WeatherDisplay:10.37,2013-10-11 20:52:00,
2013-10-11 13:57:00,69.7,50.8,30.02,SE,128,5.8,5.8,51,0.00,CLR,,0.00,WeatherDisplay:10.37,2013-10-11 20:57:00,
2013-10-11 14:02:00,69.9,50.4,30.01,South,169,4.0,4.0,50,0.00,CLR,,0.00,WeatherDisplay:10.37,2013-10-11 21:02:00,
2013-10-11 14:07:00,70.1,50.6,30.01,SE,135,3.5,3.5,50,0.00,CLR,,0.00,WeatherDisplay:10.37,2013-10-11 21:07:00,
2013-10-11 14:12:00,70.3,50.2,30.01,SE,132,4.6,4.6,49,0.00,CLR,,0.00,WeatherDisplay:10.37,2013-10-11 21:12:00,
2013-10-11 14:17:00,70.6,50.0,30.01,ESE,122,3.5,3.5,48,0.00,CLR,,0.00,WeatherDisplay:10.37,2013-10-11 21:17:00,
2013-10-11 14:22:00,70.7,50.6,30.01,South,173,2.3,2.3,49,0.00,CLR,,0.00,WeatherDisplay:10.37,2013-10-11 21:22:00,
2013-10-11 14:27:00,71.2,50.5,30.01,SE,128,4.6,4.6,48,0.00,CLR,,0.00,WeatherDisplay:10.37,2013-10-11 21:27:00,
2013-10-11 14:32:00,71.4,50.1,30.01,SSE,158,8.1,8.1,47,0.00,CLR,,0.00,WeatherDisplay:10.37,2013-10-11 21:32:00,
2013-10-11 14:37:00,71.4,49.5,30.01,ESE,118,3.5,3.5,46,0.00,CLR,,0.00,WeatherDisplay:10.37,2013-10-11 21:37:00,
2013-10-11 14:42:00,71.7,49.8,30.00,SE,138,4.0,4.0,46,0.00,CLR,,0.00,WeatherDisplay:10.37,2013-10-11 21:42:00,
2013-10-11 14:47:00,72.3,49.8,30.00,SE,124,5.8,5.8,45,0.00,CLR,,0.00,WeatherDisplay:10.37,2013-10-11 21:47:00,
2013-10-11 14:52:00,72.3,49.2,30.00,ESE,109,3.5,3.5,44,0.00,CLR,,0.00,WeatherDisplay:10.37,2013-10-11 21:52:00,
2013-10-11 14:57:00,72.5,49.3,30.00,ESE,119,3.5,3.5,44,0.00,CLR,,0.00,WeatherDisplay:10.37,2013-10-11 21:57:00,
2013-10-11 15:02:00,72.6,48.2,30.00,ESE,117,4.6,4.6,42,0.00,CLR,,0.00,WeatherDisplay:10.37,2013-10-11 22:02:00,
2013-10-11 15:07:00,72.5,48.7,30.00,SSE,155,5.8,5.8,43,0.00,CLR,,0.00,WeatherDisplay:10.37,2013-10-11 22:07:00,
2013-10-11 15:12:00,73.0,48.5,30.00,SE,128,3.5,3.5,42,0.00,CLR,,0.00,WeatherDisplay:10.37,2013-10-11 22:12:00,
2013-10-11 15:17:00,73.0,48.5,30.00,ESE,122,3.5,3.5,42,0.00,CLR,,0.00,WeatherDisplay:10.37,2013-10-11 22:17:00,
2013-10-11 15:22:00,73.2,49.4,29.99,SE,135,4.6,4.6,43,0.00,CLR,,0.00,WeatherDisplay:10.37,2013-10-11 22:22:00,
2013-10-11 15:27:00,73.4,48.3,29.99,SE,131,3.5,3.5,41,0.00,CLR,,0.00,WeatherDisplay:10.37,2013-10-11 22:27:00,
2013-10-11 15:32:00,73.3,48.2,29.99,ESE,109,3.5,3.5,41,0.00,CLR,,0.00,WeatherDisplay:10.37,2013-10-11 22:32:00,
2013-10-11 15:37:00,73.9,48.1,29.99,SE,132,4.6,4.6,40,0.00,CLR,,0.00,WeatherDisplay:10.37,2013-10-11 22:37:00,
2013-10-11 15:42:00,73.9,47.4,29.99,SE,126,3.5,3.5,39,0.00,CLR,,0.00,WeatherDisplay:10.37,2013-10-11 22:42:00,
2013-10-11 15:47:00,74.0,47.5,29.99,ESE,111,3.5,3.5,39,0.00,CLR,,0.00,WeatherDisplay:10.37,2013-10-11 22:47:00,
2013-10-11 15:52:00,74.2,46.2,29.99,SSE,162,5.8,5.8,37,0.00,CLR,,0.00,WeatherDisplay:10.37,2013-10-11 22:52:00,
2013-10-11 15:57:00,74.2,47.6,29.98,SE,134,3.5,3.5,39,0.00,CLR,,0.00,WeatherDisplay:10.37,2013-10-11 22:57:00,
2013-10-11 16:02:00,74.4,45.7,29.98,ESE,121,2.3,2.3,36,0.00,CLR,,0.00,WeatherDisplay:10.37,2013-10-11 23:02:00,
2013-10-11 16:07:00,74.5,45.8,29.98,ESE,121,3.5,3.5,36,0.00,CLR,,0.00,WeatherDisplay:10.37,2013-10-11 23:07:00,
2013-10-11 16:12:00,74.7,46.7,29.98,SSW,196,3.5,3.5,37,0.00,CLR,,0.00,WeatherDisplay:10.37,2013-10-11 23:12:00,
2013-10-11 16:17:00,74.8,46.8,29.98,SSE,163,6.0,6.0,37,0.00,CLR,,0.00,WeatherDisplay:10.37,2013-10-11 23:17:00,
2013-10-11 16:22:00,74.5,46.5,29.97,SE,142,4.6,4.6,37,0.00,CLR,,0.00,WeatherDisplay:10.37,2013-10-11 23:22:00,
2013-10-11 16:27:00,74.4,46.4,29.97,South,179,3.5,3.5,37,0.00,CLR,,0.00,WeatherDisplay:10.37,2013-10-11 23:27:00,
2013-10-11 16:32:00,74.2,47.0,29.97,ESE,118,3.5,3.5,38,0.00,CLR,,0.00,WeatherDisplay:10.37,2013-10-11 23:32:00,
2013-10-11 16:37:00,73.9,48.7,29.97,SE,124,3.5,3.5,41,0.00,CLR,,0.00,WeatherDisplay:10.37,2013-10-11 23:37:00,
2013-10-11 16:42:00,73.5,49.0,29.97,ESE,111,4.6,4.6,42,0.00,CLR,,0.00,WeatherDisplay:10.37,2013-10-11 23:42:00,
2013-10-11 16:47:00,73.4,48.9,29.97,SE,128,3.5,3.5,42,0.00,CLR,,0.00,WeatherDisplay:10.37,2013-10-11 23:47:00,
2013-10-11 16:52:00,73.0,50.4,29.97,ESE,119,3.5,3.5,45,0.00,CLR,,0.00,WeatherDisplay:10.37,2013-10-11 23:52:00,
2013-10-11 16:57:00,72.6,50.6,29.97,SE,138,3.5,3.5,46,0.00,CLR,,0.00,WeatherDisplay:10.37,2013-10-11 23:57:00,
2013-10-11 17:02:00,72.3,50.4,29.97,SE,128,3.5,3.5,46,0.00,CLR,,0.00,WeatherDisplay:10.37,2013-10-12 00:02:00,
2013-10-11 17:07:00,72.0,50.7,29.97,SSE,155,8.1,8.1,47,0.00,CLR,,0.00,WeatherDisplay:10.37,2013-10-12 00:07:00,
2013-10-11 17:12:00,71.9,51.1,29.97,SSE,160,4.0,4.0,48,0.00,CLR,,0.00,WeatherDisplay:10.37,2013-10-12 00:12:00,
2013-10-11 17:17:00,71.6,51.4,29.97,East,96,4.6,4.6,49,0.00,CLR,,0.00,WeatherDisplay:10.37,2013-10-12 00:17:00,
2013-10-11 17:22:00,70.9,51.3,29.97,ESE,104,2.3,2.3,50,0.00,CLR,,0.00,WeatherDisplay:10.37,2013-10-12 00:22:00,
2013-10-11 17:27:00,70.6,51.6,29.96,SE,139,4.0,4.0,51,0.00,CLR,,0.00,WeatherDisplay:10.37,2013-10-12 00:27:00,
2013-10-11 17:32:00,70.1,51.1,29.96,ESE,113,3.5,3.5,51,0.00,CLR,,0.00,WeatherDisplay:10.37,2013-10-12 00:32:00,
2013-10-11 17:37:00,69.9,51.5,29.96,ESE,121,3.5,3.5,52,0.00,CLR,,0.00,WeatherDisplay:10.37,2013-10-12 00:37:00,
2013-10-11 17:42:00,69.7,51.3,29.96,SE,134,3.5,3.5,52,0.00,CLR,,0.00,WeatherDisplay:10.37,2013-10-12 00:42:00,
2013-10-11 17:47:00,69.4,51.0,29.97,SE,142,3.0,3.0,52,0.00,CLR,,0.00,WeatherDisplay:10.37,2013-10-12 00:47:00,
2013-10-11 17:52:00,68.9,51.1,29.97,SSE,148,5.8,5.8,53,0.00,CLR,,0.00,WeatherDisplay:10.37,2013-10-12 00:52:00,
2013-10-11 17:57:00,68.4,50.6,29.97,SSE,158,4.6,4.6,53,0.00,CLR,,0.00,WeatherDisplay:10.37,2013-10-12 00:57:00,
2013-10-11 18:02:00,68.1,50.8,29.97,SE,135,5.8,5.8,54,0.00,CLR,,0.00,WeatherDisplay:10.37,2013-10-12 01:02:00,
2013-10-11 18:07:00,67.9,50.6,29.97,SE,124,2.3,2.3,54,0.00,CLR,,0.00,WeatherDisplay:10.37,2013-10-12 01:07:00,
2013-10-11 18:12:00,67.5,50.8,29.97,SSE,153,2.0,2.0,55,0.00,CLR,,0.00,WeatherDisplay:10.37,2013-10-12 01:12:00,
2013-10-11 18:17:00,67.1,50.4,29.97,ESE,121,3.5,3.5,55,0.00,CLR,,0.00,WeatherDisplay:10.37,2013-10-12 01:17:00,
2013-10-11 18:22:00,66.6,50.4,29.97,SSE,163,5.8,5.8,56,0.00,CLR,,0.00,WeatherDisplay:10.37,2013-10-12 01:22:00,
2013-10-11 18:27:00,66.3,50.6,29.97,SE,135,3.5,3.5,57,0.00,CLR,,0.00,WeatherDisplay:10.37,2013-10-12 01:27:00,
2013-10-11 18:32:00,65.8,50.1,29.97,South,173,3.5,3.5,57,0.00,CLR,,0.00,WeatherDisplay:10.37,2013-10-12 01:32:00,
2013-10-11 18:37:00,65.4,50.2,29.97,SSE,159,3.5,3.5,58,0.00,CLR,,0.00,WeatherDisplay:10.37,2013-10-12 01:37:00,
2013-10-11 18:42:00,65.0,49.9,29.96,SE,143,3.5,3.5,58,0.00,CLR,,0.00,WeatherDisplay:10.37,2013-10-12 01:42:00,
2013-10-11 18:47:00,64.5,49.8,29.96,ESE,115,4.6,4.6,59,0.00,CLR,,0.00,WeatherDisplay:10.37,2013-10-12 01:47:00,
2013-10-11 18:52:00,64.1,49.9,29.96,South,173,6.0,6.0,60,0.00,CLR,,0.00,WeatherDisplay:10.37,2013-10-12 01:52:00,
2013-10-11 18:57:00,63.6,49.9,29.96,SSW,197,5.8,5.8,61,0.00,CLR,,0.00,WeatherDisplay:10.37,2013-10-12 01:57:00,
2013-10-11 19:02:00,63.3,49.6,29.96,South,177,3.5,3.5,61,0.00,CLR,,0.00,WeatherDisplay:10.37,2013-10-12 02:02:00,
2013-10-11 19:07:00,63.0,49.8,29.97,SSW,193,3.5,3.5,62,0.00,CLR,,0.00,WeatherDisplay:10.37,2013-10-12 02:07:00,
2013-10-11 19:12:00,62.7,49.5,29.97,South,181,5.8,5.8,62,0.00,CLR,,0.00,WeatherDisplay:10.37,2013-10-12 02:12:00,
2013-10-11 19:17:00,62.4,49.6,29.97,SSW,195,3.5,3.5,63,0.00,CLR,,0.00,WeatherDisplay:10.37,2013-10-12 02:17:00,
2013-10-11 19:22:00,62.1,49.4,29.97,SSE,159,3.5,3.5,63,0.00,CLR,,0.00,WeatherDisplay:10.37,2013-10-12 02:22:00,
2013-10-11 19:27:00,61.8,49.5,29.97,South,173,2.3,2.3,64,0.00,CLR,,0.00,WeatherDisplay:10.37,2013-10-12 02:27:00,
2013-10-11 19:32:00,61.5,49.2,29.98,SSW,212,3.5,3.5,64,0.00,CLR,,0.00,WeatherDisplay:10.37,2013-10-12 02:32:00,
2013-10-11 19:37:00,61.2,48.9,29.98,West,264,3.5,3.5,64,0.00,CLR,,0.00,WeatherDisplay:10.37,2013-10-12 02:37:00,
2013-10-11 19:42:00,60.8,48.5,29.98,South,190,2.3,2.3,64,0.00,CLR,,0.00,WeatherDisplay:10.37,2013-10-12 02:42:00,
2013-10-11 19:47:00,60.5,48.3,29.98,SSW,201,1.2,1.2,64,0.00,CLR,,0.00,WeatherDisplay:10.37,2013-10-12 02:47:00,
2013-10-11 19:52:00,60.2,48.0,29.98,SSW,212,2.3,2.3,64,0.00,CLR,,0.00,WeatherDisplay:10.37,2013-10-12 02:52:00,
2013-10-11 19:57:00,59.9,47.7,29.98,SSW,210,2.3,2.3,64,0.00,CLR,,0.00,WeatherDisplay:10.37,2013-10-12 02:57:00,
2013-10-11 20:02:00,59.5,47.3,29.98,South,191,3.5,3.5,64,0.00,CLR,,0.00,WeatherDisplay:10.37,2013-10-12 03:02:00,
2013-10-11 20:07:00,59.1,46.9,29.98,South,187,1.2,0.0,64,0.00,CLR,,0.00,WeatherDisplay:10.37,2013-10-12 03:07:00,
2013-10-11 20:12:00,58.7,47.0,29.99,SW,226,2.3,2.3,65,0.00,CLR,,0.00,WeatherDisplay:10.37,2013-10-12 03:12:00,
2013-10-11 20:17:00,58.3,46.6,29.99,SSW,207,1.2,0.0,65,0.00,CLR,,0.00,WeatherDisplay:10.37,2013-10-12 03:17:00,
2013-10-11 20:22:00,57.9,46.2,29.99,SSE,151,1.2,1.2,65,0.00,CLR,,0.00,WeatherDisplay:10.37,2013-10-12 03:22:00,
2013-10-11 20:27:00,57.3,46.0,29.99,South,187,2.3,2.3,66,0.00,CLR,,0.00,WeatherDisplay:10.37,2013-10-12 03:27:00,
2013-10-11 20:32:00,57.0,46.1,29.99,SSW,211,2.3,2.3,67,0.00,CLR,,0.00,WeatherDisplay:10.37,2013-10-12 03:32:00,
2013-10-11 20:37:00,56.7,45.9,29.99,South,177,2.3,2.3,67,0.00,CLR,,0.00,WeatherDisplay:10.37,2013-10-12 03:37:00,
2013-10-11 20:42:00,56.6,46.2,29.99,South,190,1.2,0.0,68,0.00,CLR,,0.00,WeatherDisplay:10.37,2013-10-12 03:42:00,
2013-10-11 20:47:00,56.3,45.9,29.99,South,190,0.0,0.0,68,0.00,CLR,,0.00,WeatherDisplay:10.37,2013-10-12 03:47:00,
2013-10-11 20:52:00,55.8,45.8,29.99,South,190,0.0,0.0,69,0.00,CLR,,0.00,WeatherDisplay:10.37,2013-10-12 03:52:00,
2013-10-11 20:57:00,55.4,45.8,29.99,South,190,0.0,0.0,70,0.00,CLR,,0.00,WeatherDisplay:10.37,2013-10-12 03:57:00,
2013-10-11 21:01:00,55.2,46.0,29.99,SW,233,1.2,1.2,71,0.00,CLR,,0.00,WeatherDisplay:10.37,2013-10-12 04:01:00,
2013-10-11 21:02:00,55.1,45.9,29.99,SW,233,1.2,1.2,71,0.00,CLR,,0.00,WeatherDisplay:10.37,2013-10-12 04:02:00,
2013-10-11 21:03:00,55.1,45.9,29.99,SW,233,1.2,1.2,71,0.00,CLR,,0.00,WeatherDisplay:10.37,2013-10-12 04:03:00,
2013-10-11 21:04:00,55.1,45.9,29.99,SW,233,1.2,1.2,71,0.00,CLR,,0.00,WeatherDisplay:10.37,2013-10-12 04:04:00,
2013-10-11 21:07:00,55.1,45.9,29.99,SW,233,1.2,1.2,71,0.00,CLR,,0.00,WeatherDisplay:10.37,2013-10-12 04:07:00,
2013-10-11 21:12:00,54.9,46.0,29.99,SW,233,1.2,1.2,72,0.00,CLR,,0.00,WeatherDisplay:10.37,2013-10-12 04:12:00,
2013-10-11 21:17:00,54.8,45.9,30.00,WSW,239,1.2,1.2,72,0.00,CLR,,0.00,WeatherDisplay:10.37,2013-10-12 04:17:00,
2013-10-11 21:22:00,54.6,46.1,30.00,SW,236,1.2,1.2,73,0.00,CLR,,0.00,WeatherDisplay:10.37,2013-10-12 04:22:00,
2013-10-11 21:27:00,54.1,45.3,30.00,SW,236,0.0,0.0,72,0.00,CLR,,0.00,WeatherDisplay:10.37,2013-10-12 04:27:00,
2013-10-11 21:32:00,53.6,45.5,30.00,WSW,237,0.0,0.0,74,0.00,CLR,,0.00,WeatherDisplay:10.37,2013-10-12 04:32:00,
2013-10-11 21:37:00,53.0,44.9,30.00,SW,236,0.0,0.0,74,0.00,CLR,,0.00,WeatherDisplay:10.37,2013-10-12 04:37:00,
2013-10-11 21:42:00,52.3,45.0,30.00,SW,236,0.0,0.0,76,0.00,CLR,,0.00,WeatherDisplay:10.37,2013-10-12 04:42:00,
2013-10-11 21:47:00,52.1,45.4,30.00,SW,236,0.0,0.0,78,0.00,CLR,,0.00,WeatherDisplay:10.37,2013-10-12 04:47:00,
2013-10-11 21:52:00,51.9,45.3,30.00,SW,236,0.0,0.0,78,0.00,CLR,,0.00,WeatherDisplay:10.37,2013-10-12 04:52:00,
2013-10-11 21:57:00,51.6,45.0,30.00,SW,236,0.0,0.0,78,0.00,CLR,,0.00,WeatherDisplay:10.37,2013-10-12 04:57:00,
2013-10-11 22:02:00,51.2,44.6,30.01,SW,236,0.0,0.0,78,0.00,CLR,,0.00,WeatherDisplay:10.37,2013-10-12 05:02:00,
2013-10-11 22:07:00,50.3,43.7,30.01,SW,236,0.0,0.1,78,0.00,CLR,,0.00,WeatherDisplay:10.37,2013-10-12 05:07:00,
2013-10-11 22:12:00,49.7,44.1,30.01,SW,236,0.0,0.0,81,0.00,CLR,,0.00,WeatherDisplay:10.37,2013-10-12 05:12:00,
2013-10-11 22:17:00,49.5,44.2,30.01,WSW,237,0.0,0.0,82,0.00,CLR,,0.00,WeatherDisplay:10.37,2013-10-12 05:17:00,
2013-10-11 22:22:00,49.3,44.4,30.01,SW,236,0.0,0.0,83,0.00,CLR,,0.00,WeatherDisplay:10.37,2013-10-12 05:22:00,
2013-10-11 22:27:00,49.3,44.4,30.00,SW,236,0.0,0.0,83,0.00,CLR,,0.00,WeatherDisplay:10.37,2013-10-12 05:27:00,
2013-10-11 22:32:00,49.4,44.5,30.00,SW,236,0.0,0.1,83,0.00,CLR,,0.00,WeatherDisplay:10.37,2013-10-12 05:32:00,
2013-10-11 22:37:00,49.5,44.6,30.01,SW,236,0.0,0.0,83,0.00,CLR,,0.00,WeatherDisplay:10.37,2013-10-12 05:37:00,
2013-10-11 22:42:00,49.2,43.9,30.00,SW,236,0.0,0.0,82,0.00,CLR,,0.00,WeatherDisplay:10.37,2013-10-12 05:42:00,
2013-10-11 22:47:00,48.8,43.2,30.00,SW,236,0.0,0.0,81,0.00,CLR,,0.00,WeatherDisplay:10.37,2013-10-12 05:47:00,
2013-10-11 22:52:00,48.3,43.4,30.00,WSW,237,1.0,1.0,83,0.00,CLR,,0.00,WeatherDisplay:10.37,2013-10-12 05:52:00,
2013-10-11 22:57:00,47.9,43.3,30.00,East,100,2.3,2.3,84,0.00,CLR,,0.00,WeatherDisplay:10.37,2013-10-12 05:57:00,
2013-10-11 23:02:00,47.9,43.3,30.00,East,101,0.0,0.0,84,0.00,CLR,,0.00,WeatherDisplay:10.37,2013-10-12 06:02:00,
2013-10-11 23:07:00,47.6,43.0,30.00,East,100,0.0,0.0,84,0.00,CLR,,0.00,WeatherDisplay:10.37,2013-10-12 06:07:00,
2013-10-11 23:12:00,47.3,43.0,30.00,East,101,1.2,0.0,85,0.00,CLR,,0.00,WeatherDisplay:10.37,2013-10-12 06:12:00,
2013-10-11 23:17:00,47.1,42.8,30.00,East,101,0.0,0.0,85,0.00,CLR,,0.00,WeatherDisplay:10.37,2013-10-12 06:17:00,
2013-10-11 23:22:00,46.8,42.5,30.01,East,101,0.0,0.0,85,0.00,CLR,,0.00,WeatherDisplay:10.37,2013-10-12 06:22:00,
2013-10-11 23:27:00,46.6,42.6,30.01,East,100,0.0,0.0,86,0.00,CLR,,0.00,WeatherDisplay:10.37,2013-10-12 06:27:00,
2013-10-11 23:32:00,46.5,42.8,30.01,East,101,0.0,0.0,87,0.00,CLR,,0.00,WeatherDisplay:10.37,2013-10-12 06:32:00,
2013-10-11 23:37:00,46.1,41.8,30.00,East,101,1.2,1.2,85,0.00,CLR,,0.00,WeatherDisplay:10.37,2013-10-12 06:37:00,
2013-10-11 23:42:00,45.8,41.5,30.00,East,100,0.0,0.0,85,0.00,CLR,,0.00,WeatherDisplay:10.37,2013-10-12 06:42:00,
2013-10-11 23:47:00,45.7,41.8,30.01,East,101,0.0,0.0,86,0.00,CLR,,0.00,WeatherDisplay:10.37,2013-10-12 06:47:00,
2013-10-11 23:52:00,45.9,42.2,30.01,East,101,0.0,0.0,87,0.00,CLR,,0.00,WeatherDisplay:10.37,2013-10-12 06:52:00,
2013-10-11 23:57:00,46.1,42.7,30.01,East,100,0.0,0.0,88,0.00,CLR,,0.00,WeatherDisplay:10.37,2013-10-12 06:57:00,